Time;durP1;ratioP1;P1;durP2;ratioP2;P2;SDS_P1;SDS_P2;PMS_P1;PMS_P2;Temp;Humidity;BMP_temperature;BMP_pressure;BME280_temperature;BME280_humidity;BME280_pressure;Samples;Min_cycle;Max_cycle;Signal;HPM_P1;HPM_P2
2023/07/13 00:01:11;;;;;;;5.07;1.80;;;;;;;18.70;74.02;100649.22;6035649;28;20042;-66
2023/07/13 00:04:06;;;;;;;6.43;1.77;;;;;;;18.50;75.33;100659.06;6029104;28;20034;-68
2023/07/13 00:07:02;;;;;;;5.47;1.93;;;;;;;18.54;75.28;100660.28;6029376;28;20397;-65
2023/07/13 00:09:59;;;;;;;4.82;1.70;;;;;;;18.37;76.10;100656.25;6029831;28;20151;-66
2023/07/13 00:12:54;;;;;;;3.97;1.70;;;;;;;18.25;77.16;100671.25;6029348;28;20030;-66
2023/07/13 00:15:49;;;;;;;4.20;1.60;;;;;;;18.06;78.30;100662.03;6035676;28;20034;-66
2023/07/13 00:18:46;;;;;;;5.30;1.83;;;;;;;17.90;78.90;100661.50;6029645;28;20034;-66
2023/07/13 00:21:41;;;;;;;4.90;1.77;;;;;;;17.75;79.65;100670.47;6029335;28;20484;-66
2023/07/13 00:24:41;;;;;;;3.40;1.67;;;;;;;17.60;81.12;100669.72;6027238;28;20037;-65
2023/07/13 00:27:36;;;;;;;5.10;1.40;;;;;;;17.50;81.80;100668.34;6033628;28;20068;-66
2023/07/13 00:30:32;;;;;;;6.50;1.90;;;;;;;17.36;82.57;100678.13;6036800;28;20026;-65
2023/07/13 00:33:28;;;;;;;5.07;2.13;;;;;;;17.30;83.66;100689.59;6028258;28;20026;-66
2023/07/13 00:36:23;;;;;;;5.85;1.98;;;;;;;17.30;84.25;100670.84;6029140;28;20033;-66
2023/07/13 00:39:20;;;;;;;4.00;1.80;;;;;;;17.56;84.88;100687.19;6028774;28;20038;-65
2023/07/13 00:42:16;;;;;;;5.80;1.83;;;;;;;17.44;83.63;100683.34;6028731;28;20030;-64
2023/07/13 00:45:11;;;;;;;5.07;1.60;;;;;;;17.57;83.16;100696.09;6028203;28;20544;-65
2023/07/13 00:48:06;;;;;;;6.03;1.97;;;;;;;17.64;81.61;100679.03;6029528;28;20061;-65
2023/07/13 00:51:02;;;;;;;2.77;1.70;;;;;;;17.49;82.66;100688.97;6028822;28;20066;-65
2023/07/13 00:54:00;;;;;;;6.75;2.00;;;;;;;17.30;84.25;100694.13;6027961;28;20026;-66
2023/07/13 00:56:58;;;;;;;3.67;1.90;;;;;;;17.27;84.38;100696.16;6030675;28;20041;-64
2023/07/13 00:59:56;;;;;;;3.05;1.90;;;;;;;17.26;84.90;100688.31;6027768;28;20027;-65
2023/07/13 01:02:51;;;;;;;6.65;1.90;;;;;;;17.25;85.16;100686.66;6027584;28;20440;-66
2023/07/13 01:05:48;;;;;;;7.35;1.90;;;;;;;17.12;85.95;100681.16;6028598;28;20037;-65
2023/07/13 01:08:44;;;;;;;4.10;1.80;;;;;;;17.12;87.04;100687.31;6026932;28;20046;-66
2023/07/13 01:11:41;;;;;;;5.40;2.33;;;;;;;17.18;86.59;100670.50;6029855;28;20049;-66
2023/07/13 01:14:36;;;;;;;3.88;2.05;;;;;;;17.34;86.82;100660.56;6027676;28;20381;-66
2023/07/13 01:17:35;;;;;;;6.85;2.20;;;;;;;17.20;85.91;100673.00;6027744;28;20045;-66
2023/07/13 01:20:36;;;;;;;3.20;2.05;;;;;;;17.02;86.88;100665.38;6040242;28;20092;-66
2023/07/13 01:23:32;;;;;;;3.53;2.00;;;;;;;16.95;87.77;100674.34;6029918;28;20038;-65
2023/07/13 01:26:27;;;;;;;3.65;1.95;;;;;;;16.84;89.40;100662.28;6028024;28;20478;-66
2023/07/13 01:29:23;;;;;;;5.82;2.58;;;;;;;17.34;87.50;100664.06;6031458;28;20118;-67
2023/07/13 01:32:21;;;;;;;5.40;2.20;;;;;;;17.18;86.68;100661.63;6027600;28;20425;-66
2023/07/13 01:35:16;;;;;;;5.82;2.20;;;;;;;17.31;87.17;100659.09;6027073;28;20018;-65
2023/07/13 01:38:14;;;;;;;5.70;2.20;;;;;;;16.87;87.96;100683.34;6027931;28;20041;-66
2023/07/13 01:41:09;;;;;;;3.35;2.15;;;;;;;16.64;90.39;100688.81;6026109;28;20389;-66
2023/07/13 01:44:04;;;;;;;4.83;2.20;;;;;;;16.39;90.38;100667.81;6035107;28;20022;-66
2023/07/13 01:47:00;;;;;;;5.33;2.20;;;;;;;16.23;91.48;100676.00;6029609;28;20195;-66
2023/07/13 01:49:57;;;;;;;5.28;2.33;;;;;;;16.08;92.90;100676.03;6027868;28;20034;-66
2023/07/13 01:52:52;;;;;;;4.70;2.25;;;;;;;16.00;93.91;100674.25;6026954;28;20116;-66
2023/07/13 01:55:47;;;;;;;4.00;2.40;;;;;;;16.15;94.37;100676.94;6026715;28;20462;-65
2023/07/13 01:58:43;;;;;;;5.97;2.43;;;;;;;16.64;91.82;100688.81;6028473;28;20038;-66
2023/07/13 02:01:38;;;;;;;4.93;2.27;;;;;;;16.60;91.24;100690.19;6026019;28;20033;-67
2023/07/13 02:04:34;;;;;;;4.80;2.30;;;;;;;16.54;90.63;100693.63;6026442;28;20389;-67
2023/07/13 02:07:29;;;;;;;6.32;2.53;;;;;;;16.50;90.58;100694.13;6030885;28;20025;-66
2023/07/13 02:10:25;;;;;;;5.20;2.70;;;;;;;16.47;89.85;100676.59;6033732;28;20034;-68
2023/07/13 02:13:20;;;;;;;4.75;2.45;;;;;;;16.64;90.64;100709.38;6026133;28;20027;-65
2023/07/13 02:16:15;;;;;;;7.00;2.53;;;;;;;16.65;90.10;100689.63;6026680;28;20022;-68
2023/07/13 02:19:10;;;;;;;5.47;2.30;;;;;;;16.57;89.25;100698.59;6027665;28;20392;-66
2023/07/13 02:22:06;;;;;;;6.17;2.57;;;;;;;16.40;90.55;100707.78;6025893;28;20030;-66
2023/07/13 02:25:01;;;;;;;10.77;2.35;;;;;;;16.07;90.82;100685.03;6025599;28;20073;-65
2023/07/13 02:27:56;;;;;;;4.68;2.35;;;;;;;15.99;91.60;100693.16;6026051;28;20462;-67
2023/07/13 02:30:52;;;;;;;7.10;2.30;;;;;;;15.86;92.30;100703.63;6026766;28;20026;-65
2023/07/13 02:33:47;;;;;;;4.37;2.13;;;;;;;15.87;93.07;100699.97;6028600;28;20108;-67
2023/07/13 02:36:42;;;;;;;9.07;2.93;;;;;;;15.75;93.76;100688.03;6026145;28;20532;-65
2023/07/13 02:39:38;;;;;;;6.63;2.67;;;;;;;15.76;92.83;100711.09;6025830;28;20050;-65
2023/07/13 02:42:33;;;;;;;5.73;2.60;;;;;;;15.62;93.59;100698.50;6026270;28;20034;-66
2023/07/13 02:45:28;;;;;;;7.80;2.33;;;;;;;15.63;94.39;100711.66;6025591;28;20156;-65
2023/07/13 02:48:24;;;;;;;6.78;2.95;;;;;;;15.59;94.39;100701.53;6026237;28;20061;-65
2023/07/13 02:51:19;;;;;;;5.13;2.57;;;;;;;15.54;94.89;100714.59;6025873;28;20061;-67
2023/07/13 02:54:14;;;;;;;5.30;2.90;;;;;;;15.45;94.94;100690.56;6025549;28;20411;-68
2023/07/13 02:57:10;;;;;;;6.47;2.60;;;;;;;15.52;94.16;100690.69;6025989;28;20394;-66
2023/07/13 03:00:06;;;;;;;5.47;2.20;;;;;;;15.52;94.34;100701.38;6026364;28;20030;-65
2023/07/13 03:03:01;;;;;;;7.22;2.40;;;;;;;15.62;93.52;100699.34;6025979;28;20425;-67
2023/07/13 03:06:02;;;;;;;5.40;2.17;;;;;;;15.56;93.67;100712.56;6025092;28;20061;-65
2023/07/13 03:08:57;;;;;;;5.07;2.42;;;;;;;15.40;93.70;100690.28;6026012;28;20027;-65
2023/07/13 03:11:54;;;;;;;6.60;2.23;;;;;;;15.40;93.58;100692.94;6025801;28;20022;-65
2023/07/13 03:14:50;;;;;;;6.30;2.58;;;;;;;15.31;94.52;100698.50;6025438;28;20022;-67
2023/07/13 03:17:45;;;;;;;7.65;2.42;;;;;;;15.38;94.71;100705.63;6027065;28;20034;-67
2023/07/13 03:20:40;;;;;;;6.63;2.38;;;;;;;15.31;94.76;100710.03;6025565;28;20041;-68
2023/07/13 03:23:36;;;;;;;5.37;2.30;;;;;;;15.26;94.47;100703.53;6025291;28;20085;-66
2023/07/13 03:26:31;;;;;;;9.43;3.00;;;;;;;15.16;95.50;100710.97;6025624;28;20865;-66
2023/07/13 03:29:26;;;;;;;5.20;2.53;;;;;;;15.02;96.28;100720.56;6025974;28;20336;-66
2023/07/13 03:32:22;;;;;;;6.27;2.50;;;;;;;15.01;96.89;100724.22;6025632;28;20273;-66
2023/07/13 03:35:17;;;;;;;5.63;2.80;;;;;;;14.88;96.75;100702.59;6029453;28;20745;-66
2023/07/13 03:38:13;;;;;;;4.97;2.30;;;;;;;14.87;96.67;100699.09;6030344;28;20033;-66
2023/07/13 03:41:08;;;;;;;4.73;2.50;;;;;;;14.92;96.43;100709.22;6030054;28;20046;-66
2023/07/13 03:44:04;;;;;;;5.20;2.27;;;;;;;14.78;97.25;100699.31;6029468;28;20036;-66
2023/07/13 03:46:59;;;;;;;5.68;2.35;;;;;;;14.84;96.62;100695.91;6030151;28;20453;-66
2023/07/13 03:49:54;;;;;;;4.60;2.47;;;;;;;14.77;96.60;100694.97;6030181;28;20110;-66
2023/07/13 03:52:50;;;;;;;4.17;2.43;;;;;;;14.66;97.24;100687.31;6030150;28;20026;-66
2023/07/13 03:55:46;;;;;;;8.18;2.70;;;;;;;14.61;97.88;100692.34;6032703;28;20610;-66
2023/07/13 03:58:42;;;;;;;9.68;2.80;;;;;;;14.65;97.84;100696.31;6030016;28;20080;-66
2023/07/13 04:01:38;;;;;;;3.67;2.30;;;;;;;14.81;97.01;100712.31;6029645;28;20041;-66
2023/07/13 04:04:33;;;;;;;3.90;2.50;;;;;;;14.80;96.95;100689.28;6028737;28;20092;-66
2023/07/13 04:07:28;;;;;;;6.28;2.35;;;;;;;14.77;96.81;100701.13;6033114;28;20074;-65
2023/07/13 04:10:24;;;;;;;7.60;2.43;;;;;;;14.88;96.41;100721.28;6029430;28;20030;-66
2023/07/13 04:13:19;;;;;;;5.80;2.27;;;;;;;14.96;95.75;100723.06;6029285;28;20026;-66
2023/07/13 04:16:15;;;;;;;5.07;2.43;;;;;;;15.01;96.09;100724.22;6029492;28;20022;-66
2023/07/13 04:19:10;;;;;;;5.25;2.33;;;;;;;14.90;95.87;100705.91;6027211;28;20041;-67
2023/07/13 04:22:06;;;;;;;6.20;2.33;;;;;;;15.02;95.16;100725.06;6028775;28;20030;-66
2023/07/13 04:25:01;;;;;;;6.37;2.70;;;;;;;15.22;94.75;100726.31;6027357;28;20034;-67
2023/07/13 04:27:56;;;;;;;3.20;2.20;;;;;;;15.62;93.10;100715.38;6028727;28;20026;-66
2023/07/13 04:30:52;;;;;;;5.68;2.00;;;;;;;15.90;90.20;100732.50;6029120;28;20433;-66
2023/07/13 04:33:48;;;;;;;4.82;2.33;;;;;;;16.07;89.00;100725.19;6028461;28;20033;-66
2023/07/13 04:36:43;;;;;;;7.22;2.42;;;;;;;16.51;86.51;100744.81;6030381;28;20385;-66
2023/07/13 04:39:38;;;;;;;9.67;2.40;;;;;;;16.63;86.23;100742.56;6035340;28;20034;-66
2023/07/13 04:42:34;;;;;;;4.43;2.00;;;;;;;16.73;85.08;100740.44;6032517;28;20041;-66
2023/07/13 04:45:30;;;;;;;4.28;1.58;;;;;;;16.71;83.72;100737.09;6026925;28;20062;-67
2023/07/13 04:48:26;;;;;;;5.57;1.80;;;;;;;16.79;83.89;100722.78;6028779;28;20058;-66
2023/07/13 04:51:21;;;;;;;7.37;2.27;;;;;;;16.94;83.21;100739.66;6028680;28;20682;-66
2023/07/13 04:54:16;;;;;;;5.47;1.93;;;;;;;17.16;82.04;100744.91;6027885;28;20089;-66
2023/07/13 04:57:12;;;;;;;3.75;1.92;;;;;;;17.50;81.40;100749.59;6028603;28;20045;-66
2023/07/13 05:00:08;;;;;;;5.30;2.03;;;;;;;17.56;80.00;100751.56;6029229;28;20030;-66
2023/07/13 05:03:03;;;;;;;5.65;1.70;;;;;;;17.53;79.00;100743.91;6035896;28;20160;-67
2023/07/13 05:06:01;;;;;;;4.00;1.50;;;;;;;17.81;78.39;100747.50;6027792;28;20034;-67
2023/07/13 05:08:56;;;;;;;5.82;1.70;;;;;;;17.60;78.46;100749.34;6030092;28;20027;-66
2023/07/13 05:11:51;;;;;;;3.30;1.47;;;;;;;17.59;77.55;100759.22;6036505;28;20041;-66
2023/07/13 05:14:48;;;;;;;6.90;1.50;;;;;;;17.79;78.23;100760.28;6027334;28;20190;-66
2023/07/13 05:17:43;;;;;;;9.18;2.00;;;;;;;18.12;75.33;100757.91;6028881;28;20030;-66
2023/07/13 05:20:39;;;;;;;5.67;1.80;;;;;;;17.82;77.04;100759.91;6028036;28;20030;-66
2023/07/13 05:23:36;;;;;;;4.40;1.85;;;;;;;17.77;77.12;100767.66;6027160;28;20038;-66
2023/07/13 05:26:31;;;;;;;4.88;1.88;;;;;;;17.21;79.81;100757.72;6027101;28;20421;-67
2023/07/13 05:29:27;;;;;;;7.88;1.52;;;;;;;17.15;80.55;100782.59;6028008;28;20022;-67
2023/07/13 05:32:22;;;;;;;4.20;1.97;;;;;;;17.12;81.98;100773.09;6035264;28;20026;-66
2023/07/13 05:35:17;;;;;;;4.77;2.00;;;;;;;17.33;81.32;100768.81;6026773;28;20284;-66
2023/07/13 05:38:13;;;;;;;5.10;1.80;;;;;;;17.73;79.24;100776.28;6027414;28;20617;-65
2023/07/13 05:41:08;;;;;;;4.87;1.93;;;;;;;18.36;76.07;100773.56;6027662;28;20034;-66
2023/07/13 05:44:03;;;;;;;8.10;1.87;;;;;;;18.65;75.38;100787.84;6026108;28;20414;-67
2023/07/13 05:46:59;;;;;;;3.83;1.40;;;;;;;19.15;72.88;100767.88;6030379;28;20065;-67
2023/07/13 05:49:54;;;;;;;11.50;1.70;;;;;;;19.35;71.51;100784.94;6028919;28;20289;-66
2023/07/13 05:52:50;;;;;;;5.10;1.70;;;;;;;19.49;70.06;100792.03;6026883;28;20056;-67
2023/07/13 05:55:47;;;;;;;3.40;1.63;;;;;;;19.91;68.15;100799.81;6027236;28;20027;-66
2023/07/13 05:58:42;;;;;;;7.05;1.90;;;;;;;20.00;65.62;100800.44;6027008;28;20096;-67
2023/07/13 06:01:38;;;;;;;6.00;1.53;;;;;;;19.65;66.89;100788.97;6027277;28;20462;-67
2023/07/13 06:04:33;;;;;;;7.77;1.60;;;;;;;19.18;68.73;100789.00;6026448;28;20038;-67
2023/07/13 06:07:28;;;;;;;4.17;1.67;;;;;;;19.27;69.02;100793.97;6039546;28;20749;-67
2023/07/13 06:10:24;;;;;;;13.83;1.90;;;;;;;19.43;69.81;100811.69;6026979;28;20030;-67
2023/07/13 06:13:19;;;;;;;6.13;1.43;;;;;;;19.89;68.11;100804.59;6026173;28;20038;-67
2023/07/13 06:16:15;;;;;;;4.93;1.63;;;;;;;20.16;65.35;100790.09;6027488;28;20481;-67
2023/07/13 06:19:10;;;;;;;6.88;1.80;;;;;;;20.51;64.44;100800.69;6026355;28;20064;-67
2023/07/13 06:22:05;;;;;;;6.83;1.30;;;;;;;20.49;64.01;100800.91;6024802;28;20037;-67
2023/07/13 06:25:01;;;;;;;8.82;2.03;;;;;;;21.17;62.06;100810.34;6021797;28;20496;-67
2023/07/13 06:27:56;;;;;;;5.82;1.77;;;;;;;20.93;61.03;100813.69;6023244;28;20037;-66
2023/07/13 06:30:51;;;;;;;9.87;1.93;;;;;;;20.66;62.53;100817.47;6024060;28;20034;-67
2023/07/13 06:33:47;;;;;;;6.23;2.13;;;;;;;19.84;65.07;100808.91;6022620;28;20038;-66
2023/07/13 06:36:42;;;;;;;6.20;1.80;;;;;;;19.43;67.25;100831.31;6022825;28;20038;-66
2023/07/13 06:39:38;;;;;;;8.03;1.83;;;;;;;19.16;67.94;100816.06;6023266;28;20053;-66
2023/07/13 06:42:34;;;;;;;7.28;1.80;;;;;;;19.52;67.36;100807.78;6040595;28;20060;-67
2023/07/13 06:45:30;;;;;;;4.60;1.73;;;;;;;19.66;66.06;100798.72;6023498;28;20042;-67
2023/07/13 06:48:26;;;;;;;5.47;1.70;;;;;;;19.55;67.39;100802.81;6022772;28;20018;-67
2023/07/13 06:51:21;;;;;;;8.10;1.73;;;;;;;19.61;66.43;100801.19;6031711;28;20062;-67
2023/07/13 06:54:17;;;;;;;5.40;1.45;;;;;;;19.72;66.82;100802.47;6034723;28;20019;-66
2023/07/13 06:57:12;;;;;;;8.10;2.17;;;;;;;20.07;66.09;100818.28;6023161;28;20104;-66
2023/07/13 07:00:09;;;;;;;7.50;1.83;;;;;;;19.96;66.81;100824.25;6023121;28;20116;-67
2023/07/13 07:03:05;;;;;;;6.47;2.17;;;;;;;20.02;67.51;100799.22;6022545;28;20033;-67
2023/07/13 07:06:03;;;;;;;7.97;1.83;;;;;;;20.17;65.41;100804.38;6025278;28;20033;-67
2023/07/13 07:08:58;;;;;;;6.43;2.03;;;;;;;20.06;66.04;100827.38;6031321;28;20038;-67
2023/07/13 07:11:53;;;;;;;5.53;2.23;;;;;;;20.05;63.95;100809.56;6028547;28;20092;-66
2023/07/13 07:14:49;;;;;;;7.00;1.70;;;;;;;19.78;63.74;100826.72;6027926;28;20061;-67
2023/07/13 07:17:44;;;;;;;5.23;1.80;;;;;;;19.61;64.09;100822.72;6031790;28;20285;-67
2023/07/13 07:20:39;;;;;;;4.87;1.97;;;;;;;19.70;64.35;100823.38;6030631;28;20038;-67
2023/07/13 07:23:35;;;;;;;7.33;2.33;;;;;;;19.73;64.28;100831.03;6026988;28;20288;-67
2023/07/13 07:26:30;;;;;;;6.53;1.87;;;;;;;19.87;65.14;100828.16;6030723;28;20109;-66
2023/07/13 07:29:27;;;;;;;8.65;1.95;;;;;;;19.70;63.74;100816.13;6030506;28;20312;-66
2023/07/13 07:32:22;;;;;;;7.57;2.08;;;;;;;19.73;63.95;100820.28;6027651;28;20037;-67
2023/07/13 07:35:18;;;;;;;6.78;1.65;;;;;;;19.86;62.52;100831.91;6030246;28;20034;-67
2023/07/13 07:38:13;;;;;;;5.07;2.20;;;;;;;19.47;63.26;100815.63;6032238;28;20061;-67
2023/07/13 07:41:09;;;;;;;5.05;1.83;;;;;;;19.54;62.38;100836.13;6029720;28;20305;-66
2023/07/13 07:44:04;;;;;;;9.70;1.88;;;;;;;19.40;62.97;100825.53;6032218;28;20433;-67
2023/07/13 07:47:00;;;;;;;4.85;1.75;;;;;;;19.39;63.31;100840.00;6034181;28;20037;-66
2023/07/13 07:49:55;;;;;;;6.30;1.80;;;;;;;19.50;62.89;100816.06;6029970;28;20111;-67
2023/07/13 07:52:51;;;;;;;8.90;2.03;;;;;;;19.72;61.33;100816.75;6034127;28;20038;-66
2023/07/13 07:55:47;;;;;;;7.30;1.98;;;;;;;19.82;59.90;100836.03;6029041;28;20039;-66
2023/07/13 07:58:42;;;;;;;5.63;1.77;;;;;;;19.79;61.57;100847.19;6033362;28;20030;-67
2023/07/13 08:01:38;;;;;;;5.00;1.52;;;;;;;19.71;60.64;100827.69;6027943;28;20030;-67
2023/07/13 08:04:33;;;;;;;6.10;1.90;;;;;;;19.64;60.39;100826.84;6030322;28;20038;-66
2023/07/13 08:07:31;;;;;;;3.43;1.60;;;;;;;19.88;61.41;100821.75;6033110;28;20294;-66
2023/07/13 08:10:26;;;;;;;3.47;1.80;;;;;;;20.16;61.31;100830.47;6029138;28;20038;-67
2023/07/13 08:13:21;;;;;;;4.60;1.70;;;;;;;20.47;59.41;100837.16;6028882;28;20022;-67
2023/07/13 08:16:17;;;;;;;4.87;1.77;;;;;;;20.52;59.07;100823.94;6033916;28;20369;-67
2023/07/13 08:19:12;;;;;;;4.37;1.50;;;;;;;20.79;57.95;100822.84;6037333;28;20027;-67
2023/07/13 08:22:07;;;;;;;5.40;1.70;;;;;;;20.63;58.20;100845.66;6032859;28;20729;-67
2023/07/13 08:25:03;;;;;;;5.73;1.70;;;;;;;20.59;57.80;100833.66;6028508;28;20117;-67
2023/07/13 08:27:58;;;;;;;6.20;1.73;;;;;;;20.28;58.44;100830.75;6029137;28;20022;-67
2023/07/13 08:30:53;;;;;;;4.57;1.60;;;;;;;20.51;58.63;100841.13;6029648;28;20026;-67
2023/07/13 08:33:49;;;;;;;5.90;1.57;;;;;;;20.73;57.99;100840.72;6038073;28;20026;-67
2023/07/13 08:36:44;;;;;;;4.83;1.60;;;;;;;20.89;57.73;100844.81;6029627;28;20590;-67
2023/07/13 08:39:39;;;;;;;3.90;1.40;;;;;;;21.07;57.62;100842.31;6027120;28;20620;-67
2023/07/13 08:42:42;;;;;;;5.00;1.70;;;;;;;20.74;57.26;100836.94;6025464;28;20030;-68
2023/07/13 08:45:44;;;;;;;3.83;1.77;;;;;;;21.05;57.08;100843.53;6018010;28;20688;-67
2023/07/13 08:48:47;;;;;;;3.17;1.20;;;;;;;21.55;56.66;100825.78;6029565;28;20062;-68
2023/07/13 08:51:43;;;;;;;4.68;1.60;;;;;;;22.11;54.22;100840.22;6026812;28;20042;-67
2023/07/13 08:54:43;;;;;;;7.18;1.77;;;;;;;21.67;54.51;100837.53;6028746;28;20030;-67
2023/07/13 08:57:40;;;;;;;4.68;1.63;;;;;;;21.58;55.51;100833.44;6033871;28;20030;-67
2023/07/13 09:00:52;;;;;;;3.45;1.50;;;;;;;21.72;56.74;100840.41;6028019;28;20030;-67
2023/07/13 09:04:03;;;;;;;4.57;1.70;;;;;;;21.52;54.76;100831.59;6027604;28;20042;-68
2023/07/13 09:07:05;;;;;;;3.85;1.85;;;;;;;21.44;55.26;100837.25;6026665;28;20022;-67
2023/07/13 09:10:29;;;;;;;4.65;1.30;;;;;;;21.29;54.27;100854.50;6030222;28;20026;-67
2023/07/13 09:13:44;;;;;;;5.10;1.77;;;;;;;21.00;56.73;100854.97;6036452;28;20041;-68
2023/07/13 09:16:39;;;;;;;3.35;1.23;;;;;;;21.34;55.70;100841.19;6026964;28;20042;-67
2023/07/13 09:19:35;;;;;;;6.72;1.45;;;;;;;21.61;57.28;100843.78;6033391;28;20430;-68
2023/07/13 09:22:34;;;;;;;6.13;1.30;;;;;;;22.25;53.33;100843.66;6027488;28;20038;-67
2023/07/13 09:25:35;;;;;;;3.15;1.33;;;;;;;21.93;53.76;100840.16;6057882;28;20128;-67
2023/07/13 09:28:36;;;;;;;5.60;1.30;;;;;;;22.31;53.42;100834.69;6031026;28;20362;-67
2023/07/13 09:31:34;;;;;;;3.78;1.27;;;;;;;22.74;52.86;100856.41;6032459;28;20033;-67
2023/07/13 09:34:31;;;;;;;8.77;1.60;;;;;;;22.98;51.65;100856.38;6047429;28;20030;-67
2023/07/13 09:37:32;;;;;;;7.18;1.45;;;;;;;22.67;52.25;100851.03;6037423;28;20064;-67
2023/07/13 09:40:55;;;;;;;4.55;1.23;;;;;;;22.33;53.30;100838.81;6031416;28;20458;-67
2023/07/13 09:44:11;;;;;;;6.07;1.40;;;;;;;22.76;51.39;100846.19;6026010;28;20553;-67
2023/07/13 09:47:18;;;;;;;4.22;1.60;;;;;;;22.51;51.98;100859.66;6028632;28;20061;-67
2023/07/13 09:50:16;;;;;;;3.60;1.30;;;;;;;22.24;51.83;100853.63;6034121;28;20033;-67
2023/07/13 09:53:16;;;;;;;6.07;1.40;;;;;;;22.04;52.99;100839.41;6027535;28;20034;-68
2023/07/13 09:56:33;;;;;;;6.50;1.73;;;;;;;21.65;55.07;100853.13;6029515;28;20041;-67
2023/07/13 09:59:36;;;;;;;4.32;1.50;;;;;;;21.00;56.51;100863.06;6027827;28;20065;-67
2023/07/13 10:02:34;;;;;;;6.40;1.65;;;;;;;20.84;56.63;100852.72;6026397;28;20049;-67
2023/07/13 10:05:40;;;;;;;6.05;1.58;;;;;;;21.30;57.98;100856.19;6025356;28;20462;-68
2023/07/13 10:08:36;;;;;;;5.93;1.48;;;;;;;22.02;55.21;100836.13;6020209;28;20050;-67
2023/07/13 10:11:34;;;;;;;5.72;1.55;;;;;;;22.37;52.30;100842.72;6022214;28;20383;-67
2023/07/13 10:14:31;;;;;;;6.47;1.48;;;;;;;22.53;49.87;100844.88;6037982;28;20105;-67
2023/07/13 10:17:32;;;;;;;4.82;1.20;;;;;;;22.49;52.25;100832.88;6023600;28;20037;-67
2023/07/13 10:20:27;;;;;;;6.22;1.30;;;;;;;22.57;51.61;100844.44;6039245;28;20118;-68
2023/07/13 10:23:24;;;;;;;5.72;1.65;;;;;;;22.60;50.67;100833.19;6023437;28;20026;-68
2023/07/13 10:26:27;;;;;;;6.45;1.90;;;;;;;22.97;51.55;100846.59;6024470;28;20053;-67
2023/07/13 10:29:24;;;;;;;3.85;1.40;;;;;;;23.38;50.08;100837.84;6021590;28;20105;-67
2023/07/13 10:32:21;;;;;;;5.97;1.48;;;;;;;23.28;50.89;100856.47;6040538;28;20100;-67
2023/07/13 10:35:18;;;;;;;6.07;1.60;;;;;;;23.38;49.95;100854.09;6031030;28;20030;-68
2023/07/13 10:38:18;;;;;;;7.40;1.70;;;;;;;23.43;48.84;100851.50;6031715;28;20026;-68
2023/07/13 10:41:18;;;;;;;7.65;1.70;;;;;;;23.51;48.17;100842.25;6023947;28;20189;-68
2023/07/13 10:44:19;;;;;;;5.55;1.50;;;;;;;23.25;50.46;100829.84;6021829;28;20030;-67
2023/07/13 10:47:17;;;;;;;4.60;1.55;;;;;;;22.51;51.42;100851.56;6042712;28;20022;-67
2023/07/13 10:50:19;;;;;;;6.18;1.70;;;;;;;21.73;54.12;100850.19;6039333;28;20035;-67
2023/07/13 10:53:27;;;;;;;6.90;1.70;;;;;;;22.09;54.51;100858.53;6024771;28;20049;-67
2023/07/13 10:56:28;;;;;;;6.47;1.85;;;;;;;22.58;51.60;100843.41;6032360;28;20034;-69
2023/07/13 10:59:27;;;;;;;8.25;1.70;;;;;;;23.18;51.01;100837.22;6041274;28;20034;-67
2023/07/13 11:02:27;;;;;;;3.10;1.60;;;;;;;23.13;50.22;100849.78;6022784;28;20030;-67
2023/07/13 11:05:28;;;;;;;4.50;1.38;;;;;;;22.40;49.89;100845.00;6020832;28;20105;-67
2023/07/13 11:08:47;;;;;;;3.15;1.40;;;;;;;22.11;52.45;100869.09;6018951;28;20127;-67
2023/07/13 11:11:42;;;;;;;6.72;1.73;;;;;;;21.89;53.20;100863.22;6024828;28;20041;-68
2023/07/13 11:14:43;;;;;;;4.95;1.73;;;;;;;21.93;52.91;100857.16;6019453;28;20038;-67
2023/07/13 11:17:49;;;;;;;4.20;1.33;;;;;;;22.77;51.59;100861.38;6026140;28;20028;-67
2023/07/13 11:20:44;;;;;;;3.00;1.20;;;;;;;23.17;49.00;100850.97;6022482;28;20069;-67
2023/07/13 11:23:44;;;;;;;5.13;1.03;;;;;;;23.33;47.58;100837.66;6023550;28;20150;-68
2023/07/13 11:26:50;;;;;;;3.25;1.05;;;;;;;23.65;45.22;100847.28;6025186;28;20382;-67
2023/07/13 11:29:46;;;;;;;2.88;1.17;;;;;;;24.09;44.81;100842.53;6021670;28;20026;-67
2023/07/13 11:32:41;;;;;;;5.23;1.03;;;;;;;23.87;44.86;100841.38;6018755;28;20034;-67
2023/07/13 11:35:38;;;;;;;3.20;1.50;;;;;;;24.57;46.54;100829.66;6028327;28;20276;-68
2023/07/13 11:39:09;;;;;;;7.63;1.52;;;;;;;24.67;43.79;100807.38;6022480;28;20034;-67
2023/07/13 11:42:08;;;;;;;5.28;1.45;;;;;;;24.95;43.28;100823.00;6020384;28;20050;-67
2023/07/13 11:45:22;;;;;;;2.40;1.40;;;;;;;24.81;41.05;100842.19;6023390;28;20030;-68
2023/07/13 11:48:26;;;;;;;6.00;1.33;;;;;;;24.78;41.38;100831.81;6021487;28;20557;-68
2023/07/13 11:51:22;;;;;;;5.07;1.33;;;;;;;24.87;40.14;100843.16;6028105;28;20053;-68
2023/07/13 11:54:32;;;;;;;2.33;1.02;;;;;;;24.23;43.63;100852.13;6020307;28;20031;-68
2023/07/13 11:57:31;;;;;;;2.42;1.10;;;;;;;23.82;43.59;100827.69;6026670;28;20068;-68
2023/07/13 12:00:29;;;;;;;3.13;1.20;;;;;;;24.42;45.04;100829.31;6032230;28;20030;-67
2023/07/13 12:03:25;;;;;;;4.03;1.33;;;;;;;24.67;43.13;100826.38;6032788;28;20052;-67
2023/07/13 12:06:33;;;;;;;7.15;1.40;;;;;;;24.79;42.24;100836.19;6028639;28;20026;-68
2023/07/13 12:09:29;;;;;;;4.43;1.20;;;;;;;24.76;41.56;100819.53;6025295;28;20474;-68
2023/07/13 12:12:30;;;;;;;2.67;1.20;;;;;;;24.72;41.95;100824.63;6033158;28;20060;-68
2023/07/13 12:15:46;;;;;;;4.00;1.25;;;;;;;25.01;42.59;100825.56;6027130;28;20033;-68
2023/07/13 12:18:45;;;;;;;4.75;1.35;;;;;;;25.49;42.23;100825.28;6051472;28;20470;-68
2023/07/13 12:21:41;;;;;;;;;;;;;;;25.81;41.37;100831.88;6037972;28;20042;-68
2023/07/13 12:24:36;;;;;;;3.70;1.50;;;;;;;25.89;41.46;100831.50;6043857;28;19937;-68
2023/07/13 12:27:33;;;;;;;4.60;1.70;;;;;;;25.12;41.11;100840.19;6036313;28;20034;-68
2023/07/13 12:30:35;;;;;;;3.97;1.13;;;;;;;24.35;43.39;100842.13;6028655;28;20126;-67
2023/07/13 12:33:32;;;;;;;2.80;1.05;;;;;;;24.22;44.29;100834.19;6029594;28;20037;-67
2023/07/13 12:36:30;;;;;;;5.10;1.40;;;;;;;24.77;42.90;100822.00;6027780;28;20385;-67
2023/07/13 12:39:30;;;;;;;5.95;1.73;;;;;;;25.28;41.75;100820.44;6046248;28;20026;-68
2023/07/13 12:42:28;;;;;;;4.55;1.40;;;;;;;24.57;42.22;100818.00;6033871;28;20093;-68
2023/07/13 12:45:28;;;;;;;4.30;1.35;;;;;;;24.72;41.72;100807.50;6025377;28;20034;-68
2023/07/13 12:48:23;;;;;;;3.70;1.60;;;;;;;25.98;40.79;100826.50;6029426;28;20034;-68
2023/07/13 12:51:22;;;;;;;5.78;1.67;;;;;;;25.99;40.70;100820.78;6025473;28;20022;-68
2023/07/13 12:54:18;;;;;;;2.70;1.40;;;;;;;24.98;40.18;100838.78;6026539;28;20112;-68
2023/07/13 12:57:16;;;;;;;5.40;1.55;;;;;;;24.79;42.32;100830.75;6026566;28;20418;-68
2023/07/13 13:00:33;;;;;;;4.60;1.50;;;;;;;24.72;40.68;100834.63;6025046;28;20037;-68
2023/07/13 13:03:34;;;;;;;1.75;1.20;;;;;;;24.52;41.83;100824.13;6023883;28;20030;-68
2023/07/13 13:06:30;;;;;;;7.68;1.65;;;;;;;24.24;42.46;100824.78;6025718;28;20065;-68
2023/07/13 13:09:25;;;;;;;3.17;1.30;;;;;;;23.76;41.68;100831.31;6035285;28;20026;-67
2023/07/13 13:12:24;;;;;;;2.20;1.25;;;;;;;23.62;43.19;100817.94;6029658;28;20045;-68
2023/07/13 13:15:21;;;;;;;4.32;1.40;;;;;;;23.95;43.30;100813.94;6021738;28;20666;-67
2023/07/13 13:18:21;;;;;;;2.63;1.17;;;;;;;23.90;42.88;100821.94;6028339;28;20109;-68
2023/07/13 13:21:18;;;;;;;3.80;1.40;;;;;;;24.44;42.14;100816.31;6026037;28;20420;-67
2023/07/13 13:24:16;;;;;;;4.35;1.60;;;;;;;25.02;40.90;100834.53;6031504;28;20041;-68
2023/07/13 13:27:17;;;;;;;3.90;1.50;;;;;;;24.75;41.73;100836.88;6034270;28;20034;-68
2023/07/13 13:30:15;;;;;;;4.35;1.83;;;;;;;24.18;42.26;100852.00;6026726;28;20040;-68
2023/07/13 13:33:12;;;;;;;3.70;1.33;;;;;;;24.08;43.40;100838.16;6031639;28;20026;-68
2023/07/13 13:36:20;;;;;;;3.20;1.70;;;;;;;23.87;42.93;100842.19;6026070;28;20133;-68
2023/07/13 13:39:18;;;;;;;5.57;1.50;;;;;;;23.84;43.21;100858.06;6025714;28;20076;-68
2023/07/13 13:42:14;;;;;;;4.70;1.30;;;;;;;23.53;43.72;100854.53;6026231;28;20026;-68
2023/07/13 13:45:10;;;;;;;2.85;1.30;;;;;;;23.46;43.93;100851.06;6027243;28;20030;-68